createdAt,value
2017-01-02T00:00:03.225Z,59.83
2017-01-02T00:01:12.695Z,60.12
2017-01-02T00:02:21.823Z,59.93
2017-01-02T00:03:30.943Z,60.02
2017-01-02T00:04:39.624Z,60.12
2017-01-02T00:05:48.691Z,60.6
2017-01-02T00:06:58.543Z,60.5
2017-01-02T00:08:08.008Z,60.6
2017-01-02T00:09:16.695Z,60.75
2017-01-02T00:10:25.768Z,60.75
2017-01-02T00:11:34.442Z,60.28
2017-01-02T00:12:43.518Z,59.9
2017-01-02T00:13:52.985Z,59.71
2017-01-02T00:15:02.089Z,59.45
2017-01-02T00:16:11.163Z,59.27
2017-01-02T00:17:20.244Z,59.27
2017-01-02T00:18:29.712Z,58.88
2017-01-02T00:19:39.195Z,59.64
2017-01-02T00:20:48.268Z,58.95
2017-01-02T00:21:58.542Z,59.07
2017-01-02T00:23:07.220Z,59.07
2017-01-02T00:24:16.714Z,58.37
2017-01-02T00:25:25.380Z,58.03
2017-01-02T00:26:34.053Z,56.24
2017-01-02T00:27:43.511Z,54.44
2017-01-02T00:28:52.577Z,53.44
2017-01-02T00:30:01.639Z,52.04
2017-01-02T00:31:11.514Z,50.52
2017-01-02T00:32:20.568Z,49.49
2017-01-02T00:33:30.419Z,48.47
2017-01-02T00:34:39.495Z,47.92
2017-01-02T00:35:48.963Z,46.89
2017-01-02T00:36:58.021Z,46.22
2017-01-02T00:38:07.483Z,45.77
2017-01-02T00:39:16.175Z,45.22
2017-01-02T00:40:24.853Z,45.03
2017-01-02T00:41:34.316Z,44.45
2017-01-02T00:42:43.772Z,44.09
2017-01-02T00:43:52.850Z,43.8
2017-01-02T00:45:01.910Z,43.9
2017-01-02T00:46:11.383Z,43.63
2017-01-02T00:47:20.448Z,43.73
2017-01-02T00:48:29.140Z,43.54
2017-01-02T00:49:38.608Z,43.56
2017-01-02T00:50:47.672Z,43.27
2017-01-02T00:51:56.804Z,43.37
2017-01-02T00:53:05.879Z,43.37
2017-01-02T00:54:14.565Z,43.2
2017-01-02T00:55:24.418Z,42.91
2017-01-02T00:56:33.637Z,43.01
2017-01-02T00:57:42.706Z,42.63
2017-01-02T00:58:51.784Z,43.01
2017-01-02T01:00:00.865Z,42.63
2017-01-02T01:01:09.938Z,42.65
2017-01-02T01:02:19.393Z,42.55
2017-01-02T01:03:29.242Z,42.84
2017-01-02T01:04:38.337Z,42.74
2017-01-02T01:05:47.805Z,42.84
2017-01-02T01:06:56.517Z,42.94
2017-01-02T01:08:05.622Z,42.84
2017-01-02T01:09:14.704Z,42.86
2017-01-02T01:10:23.826Z,42.86
2017-01-02T01:11:32.525Z,42.86
2017-01-02T01:12:41.204Z,42.96
2017-01-02T01:13:51.059Z,42.96
2017-01-02T01:14:59.740Z,42.86
2017-01-02T01:16:08.805Z,42.77
2017-01-02T01:17:17.899Z,42.86
2017-01-02T01:18:26.984Z,42.57
2017-01-02T01:19:35.668Z,42.67
2017-01-02T01:20:44.745Z,42.67
2017-01-02T01:21:53.831Z,42.79
2017-01-02T01:23:02.542Z,42.69
2017-01-02T01:24:11.226Z,42.6
2017-01-02T01:25:20.298Z,42.88
2017-01-02T01:26:28.979Z,42.98
2017-01-02T01:27:38.057Z,42.69
2017-01-02T01:28:47.140Z,42.79
2017-01-02T01:29:55.825Z,43.17
2017-01-02T01:31:04.899Z,42.98
2017-01-02T01:32:13.982Z,42.69
2017-01-02T01:33:22.662Z,42.79
2017-01-02T01:34:31.743Z,43.17
2017-01-02T01:35:40.467Z,43.27
2017-01-02T01:36:49.577Z,43.65
2017-01-02T01:37:58.267Z,43.46
2017-01-02T01:39:08.120Z,43.46
2017-01-02T01:40:17.203Z,43.55
2017-01-02T01:41:26.271Z,43.48
2017-01-02T01:42:35.371Z,43.38
2017-01-02T01:43:44.443Z,43.38
2017-01-02T01:44:53.125Z,43.38
2017-01-02T01:46:02.204Z,43.27
2017-01-02T01:47:11.342Z,43.07
2017-01-02T01:48:20.055Z,43.19
2017-01-02T01:49:28.735Z,43.57
2017-01-02T01:50:37.812Z,43.87
2017-01-02T01:51:47.360Z,43.77
2017-01-02T01:52:56.855Z,43.87
2017-01-02T01:54:05.933Z,43.67
2017-01-02T01:55:15.828Z,43.67
2017-01-02T01:56:24.901Z,43.67
2017-01-02T01:57:34.789Z,43.57
2017-01-02T01:58:44.273Z,43.48
2017-01-02T01:59:52.971Z,43.67
2017-01-02T02:01:01.688Z,43.96
2017-01-02T02:02:11.162Z,43.96
2017-01-02T02:03:19.872Z,43.87
2017-01-02T02:04:28.949Z,43.87
2017-01-02T02:05:37.645Z,43.77
2017-01-02T02:06:46.745Z,44.06
2017-01-02T02:07:55.430Z,44.15
2017-01-02T02:09:04.108Z,43.96
2017-01-02T02:10:13.193Z,43.96
2017-01-02T02:11:22.402Z,43.96
2017-01-02T02:12:31.505Z,43.87
2017-01-02T02:13:41.361Z,43.87
2017-01-02T02:14:50.067Z,43.96
2017-01-02T02:15:58.769Z,44.06
2017-01-02T02:17:07.861Z,43.96
2017-01-02T02:18:16.937Z,44.06
2017-01-02T02:19:25.641Z,44.34
2017-01-02T02:20:35.129Z,44.34
2017-01-02T02:21:44.612Z,44.73
2017-01-02T02:22:53.707Z,44.63
2017-01-02T02:24:02.780Z,44.63
2017-01-02T02:25:11.863Z,44.44
2017-01-02T02:26:20.944Z,44.54
2017-01-02T02:27:30.413Z,44.34
2017-01-02T02:28:39.922Z,44.44
2017-01-02T02:29:49.819Z,44.34
2017-01-02T02:30:58.896Z,44.73
2017-01-02T02:32:08.356Z,44.54
2017-01-02T02:33:17.454Z,44.73
2017-01-02T02:34:26.960Z,44.63
2017-01-02T02:35:36.032Z,44.63
2017-01-02T02:36:45.164Z,44.54
2017-01-02T02:37:54.238Z,44.73
2017-01-02T02:39:03.337Z,44.73
2017-01-02T02:40:12.429Z,44.63
2017-01-02T02:41:21.515Z,44.73
2017-01-02T02:42:30.987Z,44.92
2017-01-02T02:43:40.073Z,44.92
2017-01-02T02:44:49.552Z,44.82
2017-01-02T02:45:58.281Z,44.82
2017-01-02T02:47:06.981Z,44.73
2017-01-02T02:48:16.487Z,45.01
2017-01-02T02:49:25.183Z,45.11
2017-01-02T02:50:33.884Z,45.4
2017-01-02T02:51:42.569Z,45.42
2017-01-02T02:52:51.648Z,45.11
2017-01-02T02:54:00.334Z,45.04
2017-01-02T02:55:09.085Z,45.21
2017-01-02T02:56:18.154Z,45.3
2017-01-02T02:57:26.861Z,45.04
2017-01-02T02:58:35.948Z,44.92
2017-01-02T02:59:44.680Z,45.21
2017-01-02T03:00:53.778Z,44.94
2017-01-02T03:02:03.259Z,45.21
2017-01-02T03:03:13.125Z,45.21
2017-01-02T03:04:22.225Z,45.59
2017-01-02T03:05:31.691Z,45.59
2017-01-02T03:06:41.162Z,45.59
2017-01-02T03:07:50.264Z,45.68
2017-01-02T03:08:59.765Z,45.52
2017-01-02T03:10:09.676Z,45.61
2017-01-02T03:11:18.771Z,45.42
2017-01-02T03:12:28.245Z,45.32
2017-01-02T03:13:37.717Z,45.23
2017-01-02T03:14:46.787Z,45.23
2017-01-02T03:15:55.864Z,45.23
2017-01-02T03:17:05.357Z,45.42
2017-01-02T03:18:14.815Z,45.5
2017-01-02T03:19:24.674Z,45.32
2017-01-02T03:20:33.777Z,45.42
2017-01-02T03:21:42.483Z,45.42
2017-01-02T03:22:51.567Z,45.42
2017-01-02T03:24:00.244Z,45.32
2017-01-02T03:25:09.359Z,45.61
2017-01-02T03:26:18.224Z,45.88
2017-01-02T03:27:27.690Z,45.61
2017-01-02T03:28:36.383Z,45.42
2017-01-02T03:29:45.491Z,45.71
2017-01-02T03:30:54.965Z,45.32
2017-01-02T03:32:04.053Z,45.71
2017-01-02T03:33:12.736Z,45.9
2017-01-02T03:34:21.815Z,46
2017-01-02T03:35:30.922Z,45.9
2017-01-02T03:36:39.641Z,45.71
2017-01-02T03:37:49.132Z,45.42
2017-01-02T03:38:58.985Z,45.61
2017-01-02T03:40:08.489Z,45.71
2017-01-02T03:41:17.565Z,45.42
2017-01-02T03:42:26.689Z,45.61
2017-01-02T03:43:36.213Z,45.42
2017-01-02T03:44:44.899Z,45.81
2017-01-02T03:45:53.608Z,45.81
2017-01-02T03:47:02.676Z,46
2017-01-02T03:48:11.773Z,45.71
2017-01-02T03:49:21.241Z,45.81
2017-01-02T03:50:29.996Z,46.09
2017-01-02T03:51:39.488Z,46
2017-01-02T03:52:48.614Z,46.19
2017-01-02T03:53:58.106Z,46.19
2017-01-02T03:55:07.277Z,46.38
2017-01-02T03:56:17.134Z,46.28
2017-01-02T03:57:27.382Z,46.28
2017-01-02T03:58:36.871Z,46.28
2017-01-02T03:59:45.576Z,45.9
2017-01-02T04:00:54.295Z,46.09
2017-01-02T04:02:03.141Z,46.19
2017-01-02T04:03:12.217Z,45.9
2017-01-02T04:04:21.372Z,46
2017-01-02T04:05:31.246Z,46
2017-01-02T04:06:40.340Z,46
2017-01-02T04:07:50.197Z,46.19
2017-01-02T04:08:58.950Z,46.28
2017-01-02T04:10:07.660Z,46.19
2017-01-02T04:11:17.126Z,46.38
2017-01-02T04:12:26.191Z,46.58
2017-01-02T04:13:34.924Z,46.38
2017-01-02T04:14:44.013Z,46.28
2017-01-02T04:15:53.498Z,46.48
2017-01-02T04:17:02.211Z,46
2017-01-02T04:18:10.945Z,46.09
2017-01-02T04:19:19.636Z,46.19
2017-01-02T04:20:28.322Z,46.19
2017-01-02T04:21:37.875Z,46.38
2017-01-02T04:22:48.108Z,46.19
2017-01-02T04:23:57.563Z,46.19
2017-01-02T04:25:06.252Z,46.28
2017-01-02T04:26:15.405Z,46.28
2017-01-02T04:27:24.102Z,46.38
2017-01-02T04:28:33.170Z,46.48
2017-01-02T04:29:41.892Z,46.48
2017-01-02T04:30:50.965Z,46.38
2017-01-02T04:32:00.424Z,46.48
2017-01-02T04:33:09.934Z,46.38
2017-01-02T04:34:19.803Z,46.48
2017-01-02T04:35:28.891Z,46.38
2017-01-02T04:36:37.974Z,46.38
2017-01-02T04:37:46.695Z,46.58
2017-01-02T04:38:55.399Z,46.38
2017-01-02T04:40:04.524Z,46.19
2017-01-02T04:41:14.010Z,46.58
2017-01-02T04:42:23.086Z,46.48
2017-01-02T04:43:32.966Z,46.48
2017-01-02T04:44:42.453Z,46.38
2017-01-02T04:45:51.536Z,46.58
2017-01-02T04:47:00.231Z,46.48
2017-01-02T04:48:08.939Z,46.58
2017-01-02T04:49:18.404Z,46.48
2017-01-02T04:50:27.528Z,46.38
2017-01-02T04:51:36.643Z,46.67
2017-01-02T04:52:45.727Z,46.28
2017-01-02T04:53:55.591Z,46.38
2017-01-02T04:55:05.070Z,46.48
2017-01-02T04:56:13.778Z,46.58
2017-01-02T04:57:23.657Z,46.86
2017-01-02T04:58:32.372Z,46.67
2017-01-02T04:59:41.486Z,47.25
2017-01-02T05:00:50.564Z,47.05
2017-01-02T05:01:59.268Z,46.96
2017-01-02T05:03:09.154Z,46.86
2017-01-02T05:04:18.272Z,46.77
2017-01-02T05:05:27.343Z,46.96
2017-01-02T05:06:36.035Z,47.05
2017-01-02T05:07:44.717Z,47.05
2017-01-02T05:08:53.399Z,47.05
2017-01-02T05:10:02.101Z,47.05
2017-01-02T05:11:10.786Z,47.05
2017-01-02T05:12:20.252Z,46.96
2017-01-02T05:13:29.354Z,47.05
2017-01-02T05:14:38.076Z,46.86
2017-01-02T05:15:47.180Z,46.86
2017-01-02T05:16:55.899Z,46.86
2017-01-02T05:18:05.363Z,46.86
2017-01-02T05:19:14.063Z,46.86
2017-01-02T05:20:23.525Z,46.96
2017-01-02T05:21:32.214Z,46.77
2017-01-02T05:22:41.319Z,46.77
2017-01-02T05:23:50.052Z,46.84
2017-01-02T05:24:59.903Z,46.77
2017-01-02T05:26:08.985Z,46.86
2017-01-02T05:27:17.725Z,46.86
2017-01-02T05:28:26.423Z,47.05
2017-01-02T05:29:35.522Z,47.05
2017-01-02T05:30:44.242Z,46.96
2017-01-02T05:31:53.380Z,46.96
2017-01-02T05:33:03.674Z,47.15
2017-01-02T05:34:13.162Z,47.15
2017-01-02T05:35:22.228Z,46.86
2017-01-02T05:36:32.089Z,46.86
2017-01-02T05:37:41.168Z,47.05
2017-01-02T05:38:50.251Z,47.05
2017-01-02T05:39:59.742Z,47.05
2017-01-02T05:41:08.838Z,47.13
2017-01-02T05:42:18.329Z,47.25
2017-01-02T05:43:27.059Z,47.15
2017-01-02T05:44:36.142Z,47.05
2017-01-02T05:45:45.226Z,47.15
2017-01-02T05:46:54.692Z,46.96
2017-01-02T05:48:03.412Z,47.05
2017-01-02T05:49:12.506Z,47.05
2017-01-02T05:50:21.671Z,46.96
2017-01-02T05:51:30.355Z,47.05
2017-01-02T05:52:39.449Z,46.86
2017-01-02T05:53:48.930Z,46.77
2017-01-02T05:54:57.999Z,46.96
2017-01-02T05:56:06.692Z,46.86
2017-01-02T05:57:15.776Z,47.15
2017-01-02T05:58:24.884Z,47.15
2017-01-02T05:59:33.964Z,46.86
2017-01-02T06:00:43.052Z,47.34
2017-01-02T06:01:52.122Z,47.34
2017-01-02T06:03:01.198Z,46.86
2017-01-02T06:04:09.915Z,47.05
2017-01-02T06:05:19.008Z,47.05
2017-01-02T06:06:27.721Z,47.05
2017-01-02T06:07:37.194Z,47.15
2017-01-02T06:08:45.902Z,47.05
2017-01-02T06:09:54.592Z,47.25
2017-01-02T06:11:04.013Z,47.05
2017-01-02T06:12:13.127Z,47.05
2017-01-02T06:13:21.828Z,47.05
2017-01-02T06:14:31.304Z,47.44
2017-01-02T06:15:40.396Z,47.44
2017-01-02T06:16:49.105Z,47.15
2017-01-02T06:17:58.171Z,47.34
2017-01-02T06:19:07.262Z,47.25
2017-01-02T06:20:17.123Z,47.15
2017-01-02T06:21:26.607Z,47.25
2017-01-02T06:22:35.293Z,47.05
2017-01-02T06:23:44.424Z,47.15
2017-01-02T06:24:53.911Z,47.05
2017-01-02T06:26:02.593Z,47.63
2017-01-02T06:27:11.744Z,46.96
2017-01-02T06:28:20.441Z,47.53
2017-01-02T06:29:29.542Z,47.53
2017-01-02T06:30:38.235Z,47.34
2017-01-02T06:31:47.348Z,47.53
2017-01-02T06:32:56.462Z,47.44
2017-01-02T06:34:05.573Z,47.44
2017-01-02T06:35:14.275Z,47.34
2017-01-02T06:36:23.749Z,47.53
2017-01-02T06:37:32.827Z,47.44
2017-01-02T06:38:41.899Z,47.53
2017-01-02T06:39:50.973Z,47.53
2017-01-02T06:41:00.047Z,47.44
2017-01-02T06:42:09.122Z,47.44
2017-01-02T06:43:18.184Z,47.72
2017-01-02T06:44:27.662Z,47.72
2017-01-02T06:45:37.156Z,47.34
2017-01-02T06:46:46.221Z,47.34
2017-01-02T06:47:54.922Z,47.72
2017-01-02T06:49:04.021Z,47.34
2017-01-02T06:50:13.501Z,47.44
2017-01-02T06:51:22.986Z,47.63
2017-01-02T06:52:31.701Z,47.72
2017-01-02T06:53:40.809Z,47.53
2017-01-02T06:54:49.886Z,47.34
2017-01-02T06:55:58.566Z,47.63
2017-01-02T06:57:07.296Z,48.21
2017-01-02T06:58:15.997Z,48.21
2017-01-02T06:59:24.705Z,48.21
2017-01-02T07:00:33.774Z,48.11
2017-01-02T07:01:43.629Z,48.11
2017-01-02T07:02:53.099Z,48.11
2017-01-02T07:04:02.224Z,48.02
2017-01-02T07:05:11.318Z,48.02
2017-01-02T07:06:20.798Z,48.02
2017-01-02T07:07:29.482Z,48.02
2017-01-02T07:08:39.366Z,48.02
2017-01-02T07:09:48.877Z,48.21
2017-01-02T07:10:58.386Z,48.02
2017-01-02T07:12:07.467Z,48.21
2017-01-02T07:13:16.555Z,48.11
2017-01-02T07:14:25.676Z,47.92
2017-01-02T07:15:34.377Z,47.82
2017-01-02T07:16:44.240Z,47.92
2017-01-02T07:17:53.316Z,48.02
2017-01-02T07:19:02.395Z,47.82
2017-01-02T07:20:11.096Z,47.82
2017-01-02T07:21:20.217Z,47.92
2017-01-02T07:22:29.339Z,47.72
2017-01-02T07:23:38.428Z,47.92
2017-01-02T07:24:47.891Z,48.21
2017-01-02T07:25:57.398Z,48.21
2017-01-02T07:27:06.151Z,48.11
2017-01-02T07:28:15.243Z,48.11
2017-01-02T07:29:24.024Z,48.21
2017-01-02T07:30:33.488Z,48.21
2017-01-02T07:31:42.225Z,48.21
2017-01-02T07:32:51.303Z,48.21
2017-01-02T07:34:00.404Z,48.21
2017-01-02T07:35:09.507Z,48.3
2017-01-02T07:36:18.978Z,48.02
2017-01-02T07:37:28.070Z,48.02
2017-01-02T07:38:37.149Z,48.3
2017-01-02T07:39:46.631Z,48.11
2017-01-02T07:40:55.789Z,48.3
2017-01-02T07:42:04.856Z,48.21
2017-01-02T07:43:13.550Z,48.21
2017-01-02T07:44:23.807Z,48.3
2017-01-02T07:45:32.501Z,48.21
2017-01-02T07:46:41.632Z,48.21
2017-01-02T07:47:51.130Z,48.3
2017-01-02T07:49:00.231Z,48.28
2017-01-02T07:50:10.096Z,48.3
2017-01-02T07:51:19.643Z,48.3
2017-01-02T07:52:28.354Z,48.3
2017-01-02T07:53:37.436Z,48.21
2017-01-02T07:54:46.128Z,48.4
2017-01-02T07:55:55.216Z,48.4
2017-01-02T07:57:04.060Z,48.3
2017-01-02T07:58:13.131Z,48.3
2017-01-02T07:59:21.830Z,48.4
2017-01-02T08:00:30.907Z,48.49
2017-01-02T08:01:39.602Z,48.02
2017-01-02T08:02:48.312Z,48.4
2017-01-02T08:03:57.013Z,48.21
2017-01-02T08:05:06.909Z,48.21
2017-01-02T08:06:15.992Z,48.11
2017-01-02T08:07:25.075Z,48.21
2017-01-02T08:08:34.547Z,48.21
2017-01-02T08:09:43.232Z,48.21
2017-01-02T08:10:52.310Z,48.11
2017-01-02T08:12:01.438Z,48.21
2017-01-02T08:13:10.951Z,48.21
2017-01-02T08:14:20.480Z,48.3
2017-01-02T08:15:29.166Z,48.59
2017-01-02T08:16:37.883Z,48.4
2017-01-02T08:17:47.362Z,48.3
2017-01-02T08:18:57.213Z,48.4
2017-01-02T08:20:05.912Z,48.3
2017-01-02T08:21:14.617Z,48.4
2017-01-02T08:22:23.725Z,48.4
2017-01-02T08:23:33.188Z,48.4
2017-01-02T08:24:41.918Z,48.49
2017-01-02T08:25:50.596Z,48.4
2017-01-02T08:26:59.294Z,48.4
2017-01-02T08:28:08.404Z,48.4
2017-01-02T08:29:17.096Z,48.49
2017-01-02T08:30:26.211Z,48.21
2017-01-02T08:31:36.151Z,48.3
2017-01-02T08:32:45.236Z,48.3
2017-01-02T08:33:54.338Z,48.3
2017-01-02T08:35:03.825Z,48.4
2017-01-02T08:36:13.703Z,48.49
2017-01-02T08:37:22.785Z,48.4
2017-01-02T08:38:31.468Z,48.3
2017-01-02T08:39:40.211Z,48.59
2017-01-02T08:40:48.924Z,48.3
2017-01-02T08:41:58.402Z,48.4
2017-01-02T08:43:07.878Z,48.21
2017-01-02T08:44:18.153Z,48.4
2017-01-02T08:45:28.402Z,48.3
2017-01-02T08:46:37.107Z,48.3
2017-01-02T08:47:46.195Z,48.4
2017-01-02T08:48:56.063Z,48.4
2017-01-02T08:50:05.172Z,48.4
2017-01-02T08:51:14.240Z,48.4
2017-01-02T08:52:23.325Z,48.4
2017-01-02T08:53:32.424Z,48.21
2017-01-02T08:54:41.197Z,48.3
2017-01-02T08:55:50.374Z,48.21
2017-01-02T08:56:59.442Z,48.21
2017-01-02T08:58:08.503Z,48.4
2017-01-02T08:59:17.188Z,48.4
2017-01-02T09:00:27.034Z,48.4
2017-01-02T09:01:37.281Z,48.11
2017-01-02T09:02:45.982Z,48.4
2017-01-02T09:03:55.376Z,48.3
2017-01-02T09:05:04.072Z,47.92
2017-01-02T09:06:13.179Z,47.94
2017-01-02T09:07:23.071Z,47.56
2017-01-02T09:08:32.534Z,47.56
2017-01-02T09:09:41.658Z,47.56
2017-01-02T09:10:51.129Z,47.08
2017-01-02T09:11:59.818Z,47.27
2017-01-02T09:13:08.884Z,47.08
2017-01-02T09:14:18.375Z,46.81
2017-01-02T09:15:28.617Z,46.91
2017-01-02T09:16:37.294Z,46.53
2017-01-02T09:17:46.864Z,46.62
2017-01-02T09:18:55.586Z,46.43
2017-01-02T09:20:05.042Z,46.14
2017-01-02T09:21:14.502Z,46.14
2017-01-02T09:22:23.184Z,46.43
2017-01-02T09:23:32.687Z,46.06
2017-01-02T09:24:41.383Z,46.45
2017-01-02T09:25:50.464Z,46.06
2017-01-02T09:26:59.557Z,45.97
2017-01-02T09:28:09.409Z,45.59
2017-01-02T09:29:18.898Z,45.59
2017-01-02T09:30:27.979Z,45.78
2017-01-02T09:31:37.062Z,45.78
2017-01-02T09:32:45.752Z,45.22
2017-01-02T09:33:54.825Z,45.51
2017-01-02T09:35:03.507Z,45.51
2017-01-02T09:36:12.213Z,45.42
2017-01-02T09:37:21.281Z,45.51
2017-01-02T09:38:30.745Z,45.42
2017-01-02T09:39:40.217Z,45.32
2017-01-02T09:40:49.287Z,45.7
2017-01-02T09:41:58.379Z,45.7
2017-01-02T09:43:07.067Z,45.51
2017-01-02T09:44:15.774Z,45.9
2017-01-02T09:45:24.492Z,45.8
2017-01-02T09:46:33.255Z,45.44
2017-01-02T09:47:41.950Z,45.05
2017-01-02T09:48:52.120Z,45.05
2017-01-02T09:50:01.658Z,45.15
2017-01-02T09:51:10.801Z,45.15
2017-01-02T09:52:20.308Z,44.96
2017-01-02T09:53:29.788Z,45.05
2017-01-02T09:54:39.273Z,45.34
2017-01-02T09:55:49.142Z,45.25
2017-01-02T09:56:58.740Z,45.34
2017-01-02T09:58:07.839Z,45.53
2017-01-02T09:59:16.532Z,45.73
2017-01-02T10:00:26.191Z,45.83
2017-01-02T10:01:35.317Z,45.73
2017-01-02T10:02:44.900Z,45.44
2017-01-02T10:03:53.996Z,45.73
2017-01-02T10:05:03.130Z,45.34
2017-01-02T10:06:12.213Z,45.36
2017-01-02T10:07:21.390Z,45.84
2017-01-02T10:08:30.129Z,45.27
2017-01-02T10:09:38.846Z,45.17
2017-01-02T10:10:47.947Z,45.75
2017-01-02T10:11:57.040Z,45.27
2017-01-02T10:13:05.771Z,44.98
2017-01-02T10:14:14.864Z,44.89
2017-01-02T10:15:23.578Z,44.69
2017-01-02T10:16:32.276Z,45
2017-01-02T10:17:41.763Z,44.81
2017-01-02T10:18:50.881Z,44.71
2017-01-02T10:20:00.032Z,44.32
2017-01-02T10:21:09.559Z,44.52
2017-01-02T10:22:18.702Z,44.62
2017-01-02T10:23:27.854Z,44.71
2017-01-02T10:24:37.316Z,44.25
2017-01-02T10:25:46.503Z,44.06
2017-01-02T10:26:55.679Z,44.15
2017-01-02T10:28:04.833Z,44.06
2017-01-02T10:29:13.549Z,43.87
2017-01-02T10:30:22.325Z,43.89
2017-01-02T10:31:31.061Z,43.7
2017-01-02T10:32:39.814Z,43.79
2017-01-02T10:33:48.941Z,43.5
2017-01-02T10:34:58.030Z,43.6
2017-01-02T10:36:07.162Z,43.62
2017-01-02T10:37:16.710Z,43.72
2017-01-02T10:38:26.658Z,43.72
2017-01-02T10:39:36.175Z,43.62
2017-01-02T10:40:45.682Z,43.62
2017-01-02T10:41:54.465Z,43.72
2017-01-02T10:43:03.636Z,43.91
2017-01-02T10:44:12.756Z,44.2
2017-01-02T10:45:21.879Z,43.91
2017-01-02T10:46:30.580Z,44.01
2017-01-02T10:47:39.349Z,43.91
2017-01-02T10:48:48.472Z,43.81
2017-01-02T10:49:57.582Z,44.2
2017-01-02T10:51:06.352Z,44.01
2017-01-02T10:52:15.483Z,44.01
2017-01-02T10:53:24.610Z,44.2
2017-01-02T10:54:33.306Z,44.2
2017-01-02T10:55:42.408Z,44.2
2017-01-02T10:56:51.507Z,44.87
2017-01-02T10:58:00.239Z,44.78
2017-01-02T10:59:10.107Z,45.07
2017-01-02T11:00:19.584Z,45.43
2017-01-02T11:01:28.806Z,46.4
2017-01-02T11:02:37.891Z,47.34
2017-01-02T11:03:46.594Z,47.31
2017-01-02T11:04:56.068Z,48.06
2017-01-02T11:06:04.756Z,48.44
2017-01-02T11:07:13.846Z,48.81
2017-01-02T11:08:22.915Z,49.77
2017-01-02T11:09:32.381Z,50.81
2017-01-02T11:10:41.454Z,50.78
2017-01-02T11:11:50.547Z,51.53
2017-01-02T11:13:00.033Z,52.26
2017-01-02T11:14:09.110Z,52.84
2017-01-02T11:15:17.804Z,53.01
2017-01-02T11:16:27.266Z,52.91
2017-01-02T11:17:36.351Z,53.11
2017-01-02T11:18:45.054Z,52.81
2017-01-02T11:19:53.750Z,52.81
2017-01-02T11:21:02.864Z,52.43
2017-01-02T11:22:11.571Z,52.43
2017-01-02T11:23:20.351Z,52.26
2017-01-02T11:24:29.527Z,51.79
2017-01-02T11:25:38.736Z,51.88
2017-01-02T11:26:48.030Z,51.59
2017-01-02T11:27:57.512Z,51.5
2017-01-02T11:29:06.585Z,51.4
2017-01-02T11:30:16.076Z,51.21
2017-01-02T11:31:24.771Z,50.82
2017-01-02T11:32:33.461Z,51.31
2017-01-02T11:33:43.362Z,50.92
2017-01-02T11:34:52.056Z,50.76
2017-01-02T11:36:01.530Z,50.44
2017-01-02T11:37:10.678Z,50.66
2017-01-02T11:38:19.760Z,50.85
2017-01-02T11:39:29.232Z,50.76
2017-01-02T11:40:38.060Z,50.27
2017-01-02T11:41:48.167Z,50.18
2017-01-02T11:42:56.879Z,50.18
2017-01-02T11:44:06.640Z,50.18
2017-01-02T11:45:16.295Z,50.18
2017-01-02T11:46:26.016Z,49.99
2017-01-02T11:47:35.553Z,49.79
2017-01-02T11:48:44.702Z,49.99
2017-01-02T11:49:53.788Z,49.89
2017-01-02T11:51:03.010Z,49.89
2017-01-02T11:52:12.608Z,50.08
2017-01-02T11:53:22.275Z,49.79
2017-01-02T11:54:31.509Z,49.6
2017-01-02T11:55:40.980Z,49.79
2017-01-02T11:56:50.069Z,49.79
2017-01-02T11:57:58.847Z,49.79
2017-01-02T11:59:08.837Z,49.79
2017-01-02T12:00:18.462Z,49.99
2017-01-02T12:01:28.679Z,49.99
2017-01-02T12:02:37.760Z,49.89
2017-01-02T12:03:46.464Z,49.99
2017-01-02T12:04:55.583Z,50.08
2017-01-02T12:06:04.318Z,49.69
2017-01-02T12:07:13.028Z,49.89
2017-01-02T12:08:22.130Z,50.1
2017-01-02T12:09:30.863Z,50.01
2017-01-02T12:10:40.331Z,49.6
2017-01-02T12:11:49.022Z,49.6
2017-01-02T12:12:58.141Z,49.63
2017-01-02T12:14:06.845Z,49.53
2017-01-02T12:15:15.922Z,49.33
2017-01-02T12:16:25.409Z,49.33
2017-01-02T12:17:34.897Z,49.33
2017-01-02T12:18:44.388Z,49.24
2017-01-02T12:19:53.506Z,49.63
2017-01-02T12:21:02.616Z,49.72
2017-01-02T12:22:12.088Z,49.63
2017-01-02T12:23:21.183Z,49.63
2017-01-02T12:24:29.880Z,49.53
2017-01-02T12:25:38.963Z,49.43
2017-01-02T12:26:48.493Z,49.72
2017-01-02T12:27:57.908Z,49.82
2017-01-02T12:29:07.708Z,49.53
2017-01-02T12:30:16.799Z,50.2
2017-01-02T12:31:25.871Z,49.99
2017-01-02T12:32:35.347Z,49.82
2017-01-02T12:33:44.076Z,49.91
2017-01-02T12:34:52.777Z,50.01
2017-01-02T12:36:02.273Z,49.91
2017-01-02T12:37:11.380Z,49.91
2017-01-02T12:38:20.462Z,50.01
2017-01-02T12:39:29.154Z,49.91
2017-01-02T12:40:38.647Z,50.01
2017-01-02T12:41:47.743Z,50.01
2017-01-02T12:42:56.860Z,50.01
2017-01-02T12:44:06.023Z,50.01
2017-01-02T12:45:14.747Z,50.01
2017-01-02T12:46:23.841Z,49.91
2017-01-02T12:47:32.560Z,50.1
2017-01-02T12:48:41.657Z,50.01
2017-01-02T12:49:50.786Z,49.91
2017-01-02T12:50:59.481Z,49.82
2017-01-02T12:52:09.007Z,49.63
2017-01-02T12:53:18.486Z,49.82
2017-01-02T12:54:27.593Z,49.82
2017-01-02T12:55:36.719Z,49.91
2017-01-02T12:56:45.807Z,50.2
2017-01-02T12:57:54.889Z,50.3
2017-01-02T12:59:04.007Z,50.01
2017-01-02T13:00:13.484Z,49.82
2017-01-02T13:01:22.242Z,50.3
2017-01-02T13:02:31.338Z,50.01
2017-01-02T13:03:40.055Z,50.4
2017-01-02T13:04:49.591Z,50.1
2017-01-02T13:05:59.066Z,50.01
2017-01-02T13:07:07.773Z,50.4
2017-01-02T13:08:16.856Z,50.01
2017-01-02T13:09:25.604Z,50.2
2017-01-02T13:10:34.389Z,50.1
2017-01-02T13:11:43.106Z,49.91
2017-01-02T13:12:52.995Z,50.1
2017-01-02T13:14:02.104Z,50.1
2017-01-02T13:15:10.833Z,50.1
2017-01-02T13:16:19.917Z,50.01
2017-01-02T13:17:28.997Z,50.2
2017-01-02T13:18:38.075Z,50.1
2017-01-02T13:19:47.142Z,50.2
2017-01-02T13:20:56.224Z,50.1
2017-01-02T13:22:05.745Z,50.1
2017-01-02T13:23:14.883Z,50.2
2017-01-02T13:24:24.042Z,50.1
2017-01-02T13:25:33.130Z,49.82
2017-01-02T13:26:43.004Z,50.3
2017-01-02T13:27:52.107Z,50.49
2017-01-02T13:29:01.195Z,50.68
2017-01-02T13:30:10.717Z,50.49
2017-01-02T13:31:19.474Z,50.2
2017-01-02T13:32:28.633Z,50.87
2017-01-02T13:33:37.791Z,50.59
2017-01-02T13:34:46.867Z,50.59
2017-01-02T13:35:55.577Z,50.68
2017-01-02T13:37:04.717Z,50.49
2017-01-02T13:38:14.636Z,50.59
2017-01-02T13:39:23.350Z,50.68
2017-01-02T13:40:32.462Z,50.68
2017-01-02T13:41:41.188Z,50.87
2017-01-02T13:42:50.679Z,50.59
2017-01-02T13:44:00.198Z,51.07
2017-01-02T13:45:09.304Z,50.78
2017-01-02T13:46:19.179Z,51.26
2017-01-02T13:47:27.907Z,51.07
2017-01-02T13:48:36.625Z,50.78
2017-01-02T13:49:45.723Z,50.97
2017-01-02T13:50:54.433Z,50.97
2017-01-02T13:52:03.950Z,50.97
2017-01-02T13:53:12.678Z,52.12
2017-01-02T13:54:21.403Z,53.25
2017-01-02T13:55:30.880Z,54.55
2017-01-02T13:56:40.754Z,56.24
2017-01-02T13:57:49.833Z,58.2
2017-01-02T13:58:58.941Z,59.36
2017-01-02T14:00:08.030Z,60.06
2017-01-02T14:01:16.733Z,61.47
2017-01-02T14:02:25.840Z,62.01
2017-01-02T14:03:34.935Z,62.97
2017-01-02T14:04:44.451Z,63.32
2017-01-02T14:05:53.593Z,63.99
2017-01-02T14:07:02.665Z,64.34
2017-01-02T14:08:11.767Z,64.62
2017-01-02T14:09:20.456Z,64.78
2017-01-02T14:10:29.920Z,65.07
2017-01-02T14:11:39.016Z,65.55
2017-01-02T14:12:47.699Z,65.71
2017-01-02T14:13:57.197Z,65.42
2017-01-02T14:15:05.881Z,66.09
2017-01-02T14:16:15.370Z,66.44
2017-01-02T14:17:24.833Z,66.25
2017-01-02T14:18:33.599Z,66.44
2017-01-02T14:19:43.587Z,66.35
2017-01-02T14:20:53.241Z,66.53
2017-01-02T14:22:02.572Z,66.35
2017-01-02T14:23:13.071Z,66.22
2017-01-02T14:24:22.268Z,66.41
2017-01-02T14:25:31.379Z,66.5
2017-01-02T14:26:40.188Z,66.5
2017-01-02T14:27:49.270Z,66.41
2017-01-02T14:28:57.947Z,66.5
2017-01-02T14:30:07.844Z,66.41
2017-01-02T14:31:16.516Z,66.56
2017-01-02T14:32:25.608Z,66.94
2017-01-02T14:33:34.681Z,66.38
2017-01-02T14:34:43.786Z,65.52
2017-01-02T14:35:52.861Z,64.97
2017-01-02T14:37:01.537Z,64.59
2017-01-02T14:38:10.225Z,63.92
2017-01-02T14:39:20.074Z,63
2017-01-02T14:40:29.553Z,62.52
2017-01-02T14:41:38.265Z,62.24
2017-01-02T14:42:46.942Z,61.66
2017-01-02T14:43:56.415Z,61.13
2017-01-02T14:45:05.494Z,60.84
2017-01-02T14:46:14.976Z,60.46
2017-01-02T14:47:24.246Z,60.07
2017-01-02T14:48:33.715Z,60.07
2017-01-02T14:49:43.188Z,60.07
2017-01-02T14:50:53.044Z,59.59
2017-01-02T14:52:01.780Z,58.93
2017-01-02T14:53:10.708Z,59.41
2017-01-02T14:54:20.148Z,58.83
2017-01-02T14:55:29.212Z,58.83